createdAt,value
2017-07-28T00:00:07.927Z,2.00
2017-07-28T00:02:35.927Z,2.33
2017-07-28T00:05:03.608Z,2.23
2017-07-28T00:07:31.330Z,1.83
2017-07-28T00:09:59.138Z,2.43
2017-07-28T00:12:26.869Z,2.13
2017-07-28T00:14:54.530Z,1.90
2017-07-28T00:17:22.497Z,2.10
2017-07-28T00:19:50.405Z,1.77
2017-07-28T00:22:18.111Z,2.53
2017-07-28T00:24:46.097Z,1.90
2017-07-28T00:27:13.897Z,2.37
2017-07-28T00:29:41.831Z,2.00
2017-07-28T00:32:09.627Z,1.93
2017-07-28T00:34:37.605Z,2.10
2017-07-28T00:37:05.261Z,1.90
2017-07-28T00:39:33.302Z,2.10
2017-07-28T00:42:01.005Z,2.27
2017-07-28T00:44:28.838Z,2.60
2017-07-28T00:46:56.581Z,1.90
2017-07-28T00:49:24.571Z,2.13
2017-07-28T00:51:52.310Z,2.23
2017-07-28T00:54:20.182Z,2.03
2017-07-28T00:56:47.990Z,2.10
2017-07-28T00:59:15.715Z,2.30
2017-07-28T01:01:43.706Z,2.70
2017-07-28T01:04:11.650Z,2.17
2017-07-28T01:06:39.765Z,1.73
2017-07-28T01:09:07.744Z,2.33
2017-07-28T01:11:35.475Z,2.40
2017-07-28T01:14:03.193Z,2.20
2017-07-28T01:16:30.982Z,2.40
2017-07-28T01:18:58.808Z,2.47
2017-07-28T01:21:26.648Z,2.03
2017-07-28T01:23:54.383Z,2.30
2017-07-28T01:26:22.402Z,3.03
2017-07-28T01:28:50.041Z,2.47
2017-07-28T01:31:17.929Z,2.23
2017-07-28T01:33:45.702Z,2.20
2017-07-28T01:36:13.455Z,2.33
2017-07-28T01:38:41.506Z,2.17
2017-07-28T01:41:09.257Z,2.43
2017-07-28T01:43:37.220Z,2.33
2017-07-28T01:46:04.924Z,2.00
2017-07-28T01:48:32.754Z,2.00
2017-07-28T01:51:01.620Z,2.00
2017-07-28T01:53:29.552Z,2.07
2017-07-28T01:55:57.280Z,2.03
2017-07-28T01:58:25.286Z,2.20
2017-07-28T02:00:53.314Z,1.97
2017-07-28T02:03:21.210Z,1.80
2017-07-28T02:05:49.093Z,2.10
2017-07-28T02:08:17.166Z,2.10
2017-07-28T02:10:45.008Z,4.10
2017-07-28T02:13:12.744Z,2.43
2017-07-28T02:15:40.765Z,2.40
2017-07-28T02:18:08.610Z,2.63
2017-07-28T02:20:36.352Z,2.37
2017-07-28T02:23:04.365Z,5.83
2017-07-28T02:25:32.084Z,2.80
2017-07-28T02:27:59.910Z,2.53
2017-07-28T02:30:27.868Z,2.10
2017-07-28T02:32:55.835Z,2.40
2017-07-28T02:35:23.552Z,2.27
2017-07-28T02:37:51.419Z,1.93
2017-07-28T02:40:19.282Z,2.40
2017-07-28T02:42:47.096Z,3.50
2017-07-28T02:45:15.065Z,2.53
2017-07-28T02:47:42.963Z,4.20
2017-07-28T02:50:10.903Z,6.03
2017-07-28T02:52:38.944Z,3.00
2017-07-28T02:55:06.888Z,2.77
2017-07-28T02:57:34.830Z,5.70
2017-07-28T03:00:02.782Z,2.37
2017-07-28T03:02:30.614Z,2.80
2017-07-28T03:04:58.512Z,2.63
2017-07-28T03:07:26.442Z,4.83
2017-07-28T03:09:54.388Z,2.90
2017-07-28T03:12:22.141Z,4.90
2017-07-28T03:14:50.172Z,3.40
2017-07-28T03:17:17.913Z,3.80
2017-07-28T03:19:45.921Z,2.97
2017-07-28T03:22:13.949Z,2.80
2017-07-28T03:24:41.644Z,3.00
2017-07-28T03:27:09.316Z,3.80
2017-07-28T03:29:37.025Z,3.50
2017-07-28T03:32:05.056Z,4.10
2017-07-28T03:34:32.682Z,3.20
2017-07-28T03:37:00.551Z,11.30
2017-07-28T03:39:28.253Z,3.97
2017-07-28T03:41:55.902Z,3.40
2017-07-28T03:44:23.928Z,2.93
2017-07-28T03:46:51.636Z,11.23
2017-07-28T03:49:19.361Z,3.37
2017-07-28T03:51:47.328Z,3.50
2017-07-28T03:54:15.239Z,3.00
2017-07-28T03:56:43.087Z,3.17
2017-07-28T03:59:10.966Z,3.10
2017-07-28T04:01:39.044Z,3.27
2017-07-28T04:04:06.812Z,3.17
2017-07-28T04:06:34.562Z,3.50
2017-07-28T04:09:02.439Z,3.37
2017-07-28T04:11:30.165Z,4.93
2017-07-28T04:13:58.228Z,3.37
2017-07-28T04:16:26.062Z,3.30
2017-07-28T04:18:53.684Z,3.70
2017-07-28T04:21:21.407Z,2.77
2017-07-28T04:23:49.298Z,3.13
2017-07-28T04:26:17.305Z,3.27
2017-07-28T04:28:45.376Z,3.07
2017-07-28T04:31:12.985Z,3.40
2017-07-28T04:33:40.601Z,3.10
2017-07-28T04:36:08.454Z,2.90
2017-07-28T04:38:36.422Z,2.90
2017-07-28T04:41:04.021Z,2.70
2017-07-28T04:43:31.678Z,3.43
2017-07-28T04:45:59.319Z,2.73
2017-07-28T04:48:26.943Z,3.67
2017-07-28T04:50:54.654Z,2.50
2017-07-28T04:53:22.263Z,2.50
2017-07-28T04:55:49.869Z,2.27
2017-07-28T04:58:17.553Z,3.13
2017-07-28T05:00:45.310Z,4.10
2017-07-28T05:03:12.968Z,2.90
2017-07-28T05:05:40.629Z,2.50
2017-07-28T05:08:08.253Z,2.23
2017-07-28T05:10:35.880Z,2.30
2017-07-28T05:13:03.555Z,2.90
2017-07-28T05:15:31.168Z,2.90
2017-07-28T05:17:58.799Z,2.63
2017-07-28T05:20:26.463Z,2.90
2017-07-28T05:22:54.062Z,3.13
2017-07-28T05:25:21.672Z,3.37
2017-07-28T05:27:49.332Z,3.33
2017-07-28T05:30:16.961Z,3.43
2017-07-28T05:32:44.572Z,3.20
2017-07-28T05:35:12.236Z,2.77
2017-07-28T05:37:39.860Z,2.47
2017-07-28T05:40:07.477Z,2.20
2017-07-28T05:42:35.158Z,2.63
2017-07-28T05:45:02.779Z,2.47
2017-07-28T05:47:30.388Z,2.60
2017-07-28T05:49:58.142Z,2.87
2017-07-28T05:52:25.784Z,3.07
2017-07-28T05:54:53.390Z,2.30
2017-07-28T05:57:21.063Z,4.00
2017-07-28T05:59:48.673Z,2.10
2017-07-28T06:02:16.371Z,2.73
2017-07-28T06:04:44.045Z,3.30
2017-07-28T06:07:11.669Z,2.70
2017-07-28T06:09:39.277Z,5.40
2017-07-28T06:12:06.943Z,2.37
2017-07-28T06:14:34.608Z,2.70
2017-07-28T06:17:02.388Z,2.10
2017-07-28T06:19:30.049Z,2.17
2017-07-28T06:21:57.651Z,3.00
2017-07-28T06:24:25.255Z,2.37
2017-07-28T06:26:52.983Z,1.90
2017-07-28T06:29:20.585Z,2.00
2017-07-28T06:31:48.182Z,3.00
2017-07-28T06:34:15.873Z,2.70
2017-07-28T06:36:43.490Z,1.83
2017-07-28T06:39:11.103Z,2.43
2017-07-28T06:41:38.936Z,2.90
2017-07-28T06:44:06.537Z,2.10
2017-07-28T06:46:34.141Z,1.97
2017-07-28T06:49:01.800Z,2.50
2017-07-28T06:51:29.385Z,2.67
2017-07-28T06:53:57.009Z,2.37
2017-07-28T06:56:24.690Z,1.87
2017-07-28T06:58:52.283Z,2.50
2017-07-28T07:01:19.888Z,1.90
2017-07-28T07:03:47.616Z,4.10
2017-07-28T07:06:15.224Z,2.40
2017-07-28T07:08:42.833Z,2.90
2017-07-28T07:11:10.494Z,2.43
2017-07-28T07:13:38.174Z,2.93
2017-07-28T07:16:05.786Z,2.30
2017-07-28T07:18:33.447Z,2.60
2017-07-28T07:21:01.202Z,3.23
2017-07-28T07:23:28.815Z,3.47
2017-07-28T07:25:56.467Z,3.13
2017-07-28T07:28:24.077Z,2.63
2017-07-28T07:30:51.676Z,3.43
2017-07-28T07:33:19.355Z,4.13
2017-07-28T07:35:46.969Z,3.80
2017-07-28T07:38:14.578Z,4.73
2017-07-28T07:40:42.255Z,2.80
2017-07-28T07:43:09.923Z,3.37
2017-07-28T07:45:37.527Z,2.30
2017-07-28T07:48:05.174Z,3.00
2017-07-28T07:50:32.780Z,3.07
2017-07-28T07:53:00.397Z,2.97
2017-07-28T07:55:28.053Z,2.70
2017-07-28T07:57:55.650Z,2.37
2017-07-28T08:00:23.249Z,2.63
2017-07-28T08:02:50.915Z,2.43
2017-07-28T08:05:18.537Z,2.03
2017-07-28T08:07:46.133Z,2.43
2017-07-28T08:10:13.970Z,1.87
2017-07-28T08:12:41.572Z,2.43
2017-07-28T08:15:09.169Z,2.37
2017-07-28T08:17:36.843Z,2.60
2017-07-28T08:20:04.485Z,3.30
2017-07-28T08:22:32.129Z,2.40
2017-07-28T08:24:59.824Z,2.67
2017-07-28T08:27:27.456Z,2.93
2017-07-28T08:29:55.084Z,2.30
2017-07-28T08:32:22.738Z,2.13
2017-07-28T08:34:50.359Z,2.30
2017-07-28T08:37:17.961Z,2.50
2017-07-28T08:39:46.096Z,1.90
2017-07-28T08:42:13.698Z,2.20
2017-07-28T08:44:41.298Z,2.60
2017-07-28T08:47:08.981Z,2.40
2017-07-28T08:49:36.595Z,2.37
2017-07-28T08:52:04.211Z,2.10
2017-07-28T08:54:31.908Z,2.70
2017-07-28T08:56:59.538Z,2.50
2017-07-28T08:59:27.153Z,2.10
2017-07-28T09:01:54.827Z,1.83
2017-07-28T09:04:22.421Z,2.40
2017-07-28T09:06:50.070Z,2.57
2017-07-28T09:09:17.756Z,2.90
2017-07-28T09:11:45.363Z,2.30
2017-07-28T09:14:12.974Z,2.33
2017-07-28T09:16:40.650Z,2.83
2017-07-28T09:19:08.274Z,2.83
2017-07-28T09:21:35.926Z,2.80
2017-07-28T09:24:03.622Z,2.73
2017-07-28T09:26:31.221Z,3.10
2017-07-28T09:28:58.840Z,2.20
2017-07-28T09:31:26.536Z,3.20
2017-07-28T09:33:54.157Z,2.70
2017-07-28T09:36:21.764Z,2.97
2017-07-28T09:38:49.507Z,2.50
2017-07-28T09:41:17.141Z,2.80
2017-07-28T09:43:44.760Z,2.67
2017-07-28T09:46:12.478Z,2.40
2017-07-28T09:48:40.077Z,2.10
2017-07-28T09:51:07.699Z,2.23
2017-07-28T09:53:35.375Z,2.43
2017-07-28T09:56:03.005Z,2.70
2017-07-28T09:58:30.626Z,3.00
2017-07-28T10:00:58.319Z,3.00
2017-07-28T10:03:25.936Z,2.67
2017-07-28T10:05:53.560Z,2.60
2017-07-28T10:08:21.308Z,2.87
2017-07-28T10:10:48.917Z,2.77
2017-07-28T10:13:16.516Z,2.47
2017-07-28T10:15:44.190Z,3.70
2017-07-28T10:18:11.817Z,3.07
2017-07-28T10:20:39.448Z,2.63
2017-07-28T10:23:07.261Z,3.37
2017-07-28T10:25:34.887Z,2.83
2017-07-28T10:28:02.521Z,3.03
2017-07-28T10:30:30.197Z,2.47
2017-07-28T10:32:57.814Z,2.43
2017-07-28T10:35:25.425Z,2.87
2017-07-28T10:37:53.113Z,2.90
2017-07-28T10:40:20.720Z,3.03
2017-07-28T10:42:48.374Z,3.07
2017-07-28T10:45:16.042Z,3.27
2017-07-28T10:47:43.779Z,3.57
2017-07-28T10:50:11.390Z,2.80
2017-07-28T10:52:39.066Z,2.47
2017-07-28T10:55:06.692Z,3.40
2017-07-28T10:57:34.309Z,3.53
2017-07-28T11:00:01.990Z,2.70
2017-07-28T11:02:29.689Z,3.70
2017-07-28T11:04:57.327Z,4.00
2017-07-28T11:07:25.021Z,3.00
2017-07-28T11:09:52.695Z,2.60
2017-07-28T11:12:20.333Z,4.20
2017-07-28T11:14:48.167Z,3.17
2017-07-28T11:17:15.908Z,3.20
2017-07-28T11:19:43.542Z,2.80
2017-07-28T11:22:12.932Z,3.23
2017-07-28T11:24:40.812Z,2.90
2017-07-28T11:27:08.479Z,2.67
2017-07-28T11:29:36.162Z,2.40
2017-07-28T11:32:03.957Z,2.50
2017-07-28T11:34:31.710Z,2.30
2017-07-28T11:36:59.383Z,2.00
2017-07-28T11:39:27.116Z,2.87
2017-07-28T11:41:54.892Z,2.87
2017-07-28T11:44:22.640Z,4.40
2017-07-28T11:46:54.666Z,3.00
2017-07-28T11:49:22.339Z,2.70
2017-07-28T11:51:51.131Z,2.57
2017-07-28T11:54:19.006Z,2.67
2017-07-28T11:56:46.650Z,2.63
2017-07-28T11:59:14.453Z,3.10
2017-07-28T12:01:42.194Z,3.17
2017-07-28T12:04:09.884Z,2.80
2017-07-28T12:06:37.563Z,3.40
2017-07-28T12:09:06.042Z,3.63
2017-07-28T12:11:33.927Z,3.63
2017-07-28T12:14:02.670Z,2.97
2017-07-28T12:16:30.370Z,3.23
2017-07-28T12:18:57.979Z,4.00
2017-07-28T12:21:26.071Z,4.20
2017-07-28T12:23:54.041Z,4.33
2017-07-28T12:26:21.869Z,3.37
2017-07-28T12:28:49.989Z,3.67
2017-07-28T12:31:17.847Z,3.70
2017-07-28T12:33:45.441Z,4.00
2017-07-28T12:36:13.171Z,3.90
2017-07-28T12:38:40.869Z,3.50
2017-07-28T12:41:08.470Z,3.20
2017-07-28T12:43:36.176Z,3.13
2017-07-28T12:46:03.875Z,3.23
2017-07-28T12:48:31.486Z,3.77
2017-07-28T12:50:59.091Z,3.10
2017-07-28T12:53:26.759Z,3.97
2017-07-28T12:55:54.369Z,3.77
2017-07-28T12:58:21.980Z,3.60
2017-07-28T13:00:49.646Z,3.50
2017-07-28T13:03:17.245Z,4.20
2017-07-28T13:05:44.862Z,3.70
2017-07-28T13:08:13.347Z,3.90
2017-07-28T13:10:41.211Z,4.20
2017-07-28T13:13:08.850Z,3.63
2017-07-28T13:15:36.613Z,4.50
2017-07-28T13:18:04.230Z,4.70
2017-07-28T13:20:31.841Z,3.87
2017-07-28T13:22:59.540Z,4.37
2017-07-28T13:25:27.169Z,4.80
2017-07-28T13:27:54.783Z,5.40
2017-07-28T13:30:22.449Z,4.80
2017-07-28T13:32:50.046Z,4.90
2017-07-28T13:35:17.677Z,5.13
2017-07-28T13:37:45.382Z,4.60
2017-07-28T13:40:12.995Z,3.63
2017-07-28T13:42:40.619Z,5.00
2017-07-28T13:45:08.305Z,5.37
2017-07-28T13:47:35.911Z,5.20
2017-07-28T13:50:03.528Z,5.33
2017-07-28T13:52:31.641Z,7.60
2017-07-28T13:54:59.252Z,5.73
2017-07-28T13:57:26.854Z,5.90
2017-07-28T13:59:54.548Z,6.80
2017-07-28T14:02:22.164Z,7.20
2017-07-28T14:04:49.797Z,5.70
2017-07-28T14:07:17.494Z,6.40
2017-07-28T14:09:45.119Z,5.83
2017-07-28T14:12:12.727Z,6.40
2017-07-28T14:14:40.517Z,6.93
2017-07-28T14:17:08.127Z,7.00
2017-07-28T14:19:35.753Z,7.17
2017-07-28T14:22:03.600Z,8.37
2017-07-28T14:24:31.345Z,7.60
2017-07-28T14:26:58.969Z,6.80
2017-07-28T14:29:26.656Z,11.10
2017-07-28T14:31:54.674Z,8.90
2017-07-28T14:34:22.325Z,7.60
2017-07-28T14:36:50.002Z,7.57
2017-07-28T14:39:17.613Z,9.07
2017-07-28T14:41:45.237Z,7.20
2017-07-28T14:44:12.901Z,8.27
2017-07-28T14:46:40.649Z,6.60
2017-07-28T14:49:08.281Z,9.80
2017-07-28T14:51:35.967Z,8.83
2017-07-28T14:54:03.588Z,8.40
2017-07-28T14:56:31.229Z,8.57
2017-07-28T14:58:58.888Z,6.83
2017-07-28T15:01:26.532Z,7.40
2017-07-28T15:03:54.146Z,6.37
2017-07-28T15:06:21.820Z,6.63
2017-07-28T15:08:49.446Z,7.70
2017-07-28T15:11:17.063Z,6.30
2017-07-28T15:13:44.778Z,6.50
2017-07-28T15:16:12.482Z,6.43
2017-07-28T15:18:40.086Z,6.90
2017-07-28T15:21:07.775Z,7.47
2017-07-28T15:23:35.438Z,6.57
2017-07-28T15:26:03.357Z,6.27
2017-07-28T15:28:31.103Z,7.93
2017-07-28T15:30:58.706Z,6.30
2017-07-28T15:33:26.336Z,6.90
2017-07-28T15:35:53.995Z,5.73
2017-07-28T15:38:21.610Z,8.77
2017-07-28T15:40:49.215Z,8.00
2017-07-28T15:43:16.892Z,8.47
2017-07-28T15:45:44.518Z,7.77
2017-07-28T15:48:12.177Z,7.50
2017-07-28T15:50:39.842Z,9.70
2017-07-28T15:53:07.519Z,8.53
2017-07-28T15:55:35.191Z,8.23
2017-07-28T15:58:03.052Z,9.33
2017-07-28T16:00:31.875Z,11.13
2017-07-28T16:03:00.688Z,9.73
2017-07-28T16:05:29.533Z,10.40
2017-07-28T16:07:57.673Z,8.43
2017-07-28T16:10:26.076Z,8.73
2017-07-28T16:12:54.087Z,8.07
2017-07-28T16:15:22.998Z,5.77
2017-07-28T16:17:53.449Z,9.37
2017-07-28T16:20:23.558Z,8.33
2017-07-28T16:22:51.212Z,6.50
2017-07-28T16:25:18.828Z,5.63
2017-07-28T16:27:46.496Z,6.03
2017-07-28T16:30:14.096Z,7.37
2017-07-28T16:32:41.703Z,6.80
2017-07-28T16:35:09.466Z,6.40
2017-07-28T16:37:37.094Z,7.10
2017-07-28T16:40:04.709Z,6.80
2017-07-28T16:42:32.392Z,9.00
2017-07-28T16:45:00.002Z,6.37
2017-07-28T16:47:27.593Z,7.33
2017-07-28T16:49:55.272Z,6.17
2017-07-28T16:52:22.910Z,7.33
2017-07-28T16:54:50.573Z,7.37
2017-07-28T16:57:18.263Z,8.50
2017-07-28T16:59:45.888Z,8.60
2017-07-28T17:02:14.246Z,21.30
2017-07-28T17:04:41.929Z,8.30
2017-07-28T17:07:09.541Z,8.23
2017-07-28T17:09:37.170Z,35.47
2017-07-28T17:12:04.846Z,15.80
2017-07-28T17:14:32.482Z,12.07
2017-07-28T17:17:00.126Z,33.87
2017-07-28T17:19:27.847Z,27.93
2017-07-28T17:21:55.468Z,21.97
2017-07-28T17:24:23.157Z,7.97
2017-07-28T17:26:50.818Z,10.57
2017-07-28T17:29:18.439Z,10.50
2017-07-28T17:31:46.075Z,16.40
2017-07-28T17:34:13.782Z,8.33
2017-07-28T17:36:41.457Z,10.20
2017-07-28T17:39:09.113Z,8.97
2017-07-28T17:41:36.811Z,9.50
2017-07-28T17:44:04.438Z,10.33
2017-07-28T17:46:32.073Z,10.47
2017-07-28T17:48:59.796Z,9.00
2017-07-28T17:51:27.410Z,9.77
2017-07-28T17:53:55.037Z,9.47
2017-07-28T17:56:22.725Z,9.47
2017-07-28T17:58:50.362Z,10.43
2017-07-28T18:01:17.986Z,10.20
2017-07-28T18:03:45.675Z,10.10
2017-07-28T18:06:13.315Z,10.43
2017-07-28T18:08:40.947Z,10.00
2017-07-28T18:11:08.663Z,11.10
2017-07-28T18:13:36.268Z,9.10
2017-07-28T18:16:03.911Z,10.40
2017-07-28T18:18:31.577Z,11.43
2017-07-28T18:20:59.260Z,9.40
2017-07-28T18:23:26.862Z,10.77
2017-07-28T18:25:54.546Z,11.50
2017-07-28T18:28:22.185Z,11.00
2017-07-28T18:30:49.934Z,11.30
2017-07-28T18:33:17.924Z,10.33
2017-07-28T18:35:45.540Z,11.93
2017-07-28T18:38:13.158Z,10.53
2017-07-28T18:40:40.821Z,12.40
2017-07-28T18:43:08.447Z,12.83
2017-07-28T18:45:36.077Z,13.57
2017-07-28T18:48:03.894Z,13.70
2017-07-28T18:50:31.516Z,12.17
2017-07-28T18:52:59.132Z,12.90
2017-07-28T18:55:26.823Z,14.27
2017-07-28T18:57:54.427Z,13.47
2017-07-28T19:00:22.071Z,16.20
2017-07-28T19:02:49.770Z,15.83
2017-07-28T19:05:17.409Z,11.90
2017-07-28T19:07:45.078Z,12.33
2017-07-28T19:10:12.760Z,15.07
2017-07-28T19:12:40.392Z,14.20
2017-07-28T19:15:08.006Z,14.70
2017-07-28T19:17:35.692Z,15.43
2017-07-28T19:20:03.314Z,14.63
2017-07-28T19:22:30.985Z,14.10
2017-07-28T19:24:58.654Z,13.00
2017-07-28T19:27:26.271Z,13.37
2017-07-28T19:29:53.881Z,12.57
2017-07-28T19:32:21.555Z,13.53
2017-07-28T19:34:49.182Z,14.83
2017-07-28T19:37:16.806Z,12.80
2017-07-28T19:39:44.513Z,14.03
2017-07-28T19:42:12.126Z,11.80
2017-07-28T19:44:39.767Z,14.80
2017-07-28T19:47:07.439Z,13.17
2017-07-28T19:49:35.080Z,15.37
2017-07-28T19:52:02.719Z,15.97
2017-07-28T19:54:30.411Z,13.90
2017-07-28T19:56:58.157Z,12.10
2017-07-28T19:59:25.777Z,12.37
2017-07-28T20:01:53.686Z,15.57
2017-07-28T20:04:21.307Z,12.60
2017-07-28T20:06:48.921Z,12.40
2017-07-28T20:09:16.821Z,12.43
2017-07-28T20:11:44.760Z,11.97
2017-07-28T20:14:12.377Z,12.60
2017-07-28T20:16:40.055Z,14.00
2017-07-28T20:19:07.741Z,12.63
2017-07-28T20:21:35.801Z,12.93
2017-07-28T20:24:03.532Z,12.87
2017-07-28T20:26:31.152Z,14.07
2017-07-28T20:28:58.769Z,12.97
2017-07-28T20:31:26.465Z,13.30
2017-07-28T20:33:54.207Z,14.17
2017-07-28T20:36:21.813Z,14.97
2017-07-28T20:38:49.475Z,12.80
2017-07-28T20:41:17.121Z,15.93
2017-07-28T20:43:44.740Z,14.10
2017-07-28T20:46:12.388Z,15.50
2017-07-28T20:48:40.259Z,14.27
2017-07-28T20:51:07.959Z,14.93
2017-07-28T20:53:35.995Z,14.77
2017-07-28T20:56:03.713Z,14.77
2017-07-28T20:58:31.402Z,14.73
2017-07-28T21:00:59.217Z,13.40
2017-07-28T21:03:26.861Z,16.60
2017-07-28T21:05:54.534Z,16.20
2017-07-28T21:08:22.203Z,14.43
2017-07-28T21:10:49.864Z,15.77
2017-07-28T21:13:17.704Z,12.27
2017-07-28T21:15:45.445Z,13.97
2017-07-28T21:18:13.413Z,14.10
2017-07-28T21:20:41.333Z,11.13
2017-07-28T21:23:09.356Z,13.40
2017-07-28T21:25:37.017Z,13.00
2017-07-28T21:28:04.626Z,12.30
2017-07-28T21:30:32.300Z,11.93
2017-07-28T21:32:59.902Z,13.03
2017-07-28T21:35:27.513Z,13.07
2017-07-28T21:37:55.169Z,11.27
2017-07-28T21:40:22.801Z,12.03
2017-07-28T21:42:50.412Z,12.70
2017-07-28T21:45:18.082Z,11.20
2017-07-28T21:47:45.720Z,11.67
2017-07-28T21:50:13.344Z,10.97
2017-07-28T21:52:40.987Z,12.43
2017-07-28T21:55:08.600Z,12.00
2017-07-28T21:57:36.216Z,12.20
2017-07-28T22:00:03.870Z,12.07
2017-07-28T22:02:31.496Z,11.17
2017-07-28T22:04:59.137Z,12.90
2017-07-28T22:07:26.821Z,13.27
2017-07-28T22:09:54.428Z,12.00
2017-07-28T22:12:22.037Z,13.00
2017-07-28T22:14:49.728Z,13.17
2017-07-28T22:17:17.369Z,11.47
2017-07-28T22:19:44.978Z,13.57
2017-07-28T22:22:12.652Z,10.40
2017-07-28T22:24:40.290Z,10.53
2017-07-28T22:27:07.947Z,11.50
2017-07-28T22:29:35.666Z,10.37
2017-07-28T22:32:03.389Z,12.03
2017-07-28T22:34:31.115Z,11.83
2017-07-28T22:36:59.063Z,10.97
2017-07-28T22:39:26.898Z,10.17
2017-07-28T22:41:54.641Z,9.60
2017-07-28T22:44:22.295Z,8.87
2017-07-28T22:46:49.906Z,9.27
2017-07-28T22:49:17.521Z,9.80
2017-07-28T22:51:45.167Z,8.40
2017-07-28T22:54:12.769Z,9.40
2017-07-28T22:56:40.370Z,8.50
2017-07-28T22:59:08.121Z,9.43
2017-07-28T23:01:35.727Z,8.97
2017-07-28T23:04:03.347Z,9.27
2017-07-28T23:06:31.011Z,7.90
2017-07-28T23:08:58.632Z,6.63
2017-07-28T23:11:26.256Z,8.10
2017-07-28T23:13:53.936Z,8.30
2017-07-28T23:16:21.556Z,7.53
2017-07-28T23:18:49.168Z,7.63
2017-07-28T23:21:16.838Z,7.63
2017-07-28T23:23:44.438Z,6.17
2017-07-28T23:26:12.037Z,6.77
2017-07-28T23:28:39.743Z,8.53
2017-07-28T23:31:07.352Z,8.77
2017-07-28T23:33:34.964Z,8.00
2017-07-28T23:36:02.623Z,9.53
2017-07-28T23:38:30.214Z,7.40
2017-07-28T23:40:57.858Z,6.47
2017-07-28T23:43:25.517Z,7.60
2017-07-28T23:45:53.156Z,7.67
2017-07-28T23:48:20.788Z,9.10
2017-07-28T23:50:48.449Z,8.60
2017-07-28T23:53:16.058Z,7.47
2017-07-28T23:55:43.692Z,7.87
2017-07-28T23:58:11.412Z,7.60
